Time,TemperatureF,DewpointF,PressureIn,WindDirection,WindDirectionDegrees,WindSpeedMPH,WindSpeedGustMPH,Humidity,HourlyPrecipIn,Conditions,Clouds,dailyrainin,SoftwareType,DateUTC
2013-04-17 00:03:00,58.9,52.0,29.94,SW,224,1.0,7.0,79,0.00,,,0.00,weatherlink.com 1.10,2013-04-17 04:03:00,
2013-04-17 00:18:00,58.9,52.0,29.94,SSW,209,2.0,6.0,79,0.00,,,0.00,weatherlink.com 1.10,2013-04-17 04:18:00,
2013-04-17 00:33:00,59.3,53.0,29.94,SSW,198,2.0,11.0,79,0.00,,,0.00,weatherlink.com 1.10,2013-04-17 04:33:00,
2013-04-17 00:49:00,59.3,53.0,29.94,ESE,113,3.0,8.0,79,0.00,,,0.00,weatherlink.com 1.10,2013-04-17 04:49:00,
2013-04-17 01:04:00,59.3,53.0,29.93,WSW,239,3.0,14.0,79,0.00,,,0.00,weatherlink.com 1.10,2013-04-17 05:04:00,
2013-04-17 01:19:00,59.1,53.0,29.95,South,182,5.0,12.0,80,0.00,,,0.00,weatherlink.com 1.10,2013-04-17 05:19:00,
2013-04-17 01:34:00,58.9,53.0,29.95,SSW,194,4.0,9.0,80,0.00,,,0.00,weatherlink.com 1.10,2013-04-17 05:34:00,
2013-04-17 01:49:00,58.7,53.0,29.95,South,181,5.0,7.0,81,0.00,,,0.00,weatherlink.com 1.10,2013-04-17 05:49:00,
2013-04-17 02:04:00,58.6,53.0,29.95,SSW,206,4.0,12.0,81,0.00,,,0.00,weatherlink.com 1.10,2013-04-17 06:04:00,
2013-04-17 02:19:00,58.3,53.0,29.95,SSW,213,3.0,7.0,81,0.00,,,0.00,weatherlink.com 1.10,2013-04-17 06:19:00,
2013-04-17 02:34:00,58.1,52.0,29.95,WSW,243,9.0,13.0,79,0.00,,,0.00,weatherlink.com 1.10,2013-04-17 06:34:00,
2013-04-17 02:49:00,57.8,50.0,29.95,South,187,2.0,8.0,74,0.00,,,0.00,weatherlink.com 1.10,2013-04-17 06:49:00,
2013-04-17 03:04:00,57.7,47.0,29.96,SW,217,9.0,10.0,68,0.00,,,0.00,weatherlink.com 1.10,2013-04-17 07:04:00,
2013-04-17 03:19:00,57.5,47.0,29.96,South,176,4.0,8.0,67,0.00,,,0.00,weatherlink.com 1.10,2013-04-17 07:19:00,
2013-04-17 03:34:00,57.1,46.0,29.97,South,184,1.0,7.0,67,0.00,,,0.00,weatherlink.com 1.10,2013-04-17 07:34:00,
2013-04-17 03:49:00,56.4,46.0,29.96,South,185,2.0,4.0,68,0.00,,,0.00,weatherlink.com 1.10,2013-04-17 07:49:00,
2013-04-17 04:04:00,56.0,46.0,29.97,SW,215,3.0,7.0,70,0.00,,,0.00,weatherlink.com 1.10,2013-04-17 08:04:00,
2013-04-17 04:19:00,55.8,47.0,29.98,East,79,2.0,8.0,71,0.00,,,0.00,weatherlink.com 1.10,2013-04-17 08:19:00,
2013-04-17 04:34:00,55.5,46.0,29.98,NNW,340,2.0,5.0,71,0.00,,,0.00,weatherlink.com 1.10,2013-04-17 08:34:00,
2013-04-17 04:49:00,55.3,46.0,29.99,NNE,20,3.0,8.0,70,0.00,,,0.00,weatherlink.com 1.10,2013-04-17 08:49:00,
2013-04-17 05:04:00,55.1,45.0,29.99,NNW,336,2.0,7.0,68,0.00,,,0.00,weatherlink.com 1.10,2013-04-17 09:04:00,
2013-04-17 05:19:00,54.7,43.0,30.00,North,5,3.0,8.0,66,0.00,,,0.00,weatherlink.com 1.10,2013-04-17 09:19:00,
2013-04-17 05:34:00,54.2,43.0,30.00,North,355,3.0,5.0,65,0.00,,,0.00,weatherlink.com 1.10,2013-04-17 09:34:00,
2013-04-17 05:49:00,53.5,41.0,30.01,North,355,3.0,7.0,64,0.00,,,0.00,weatherlink.com 1.10,2013-04-17 09:49:00,
2013-04-17 06:04:00,52.9,41.0,30.01,NNE,17,6.0,8.0,64,0.00,,,0.00,weatherlink.com 1.10,2013-04-17 10:04:00,
2013-04-17 06:19:00,52.3,41.0,30.02,NNE,13,1.0,9.0,65,0.00,,,0.00,weatherlink.com 1.10,2013-04-17 10:19:00,
2013-04-17 06:34:00,51.8,41.0,30.02,NNE,16,3.0,7.0,66,0.00,,,0.00,weatherlink.com 1.10,2013-04-17 10:34:00,
2013-04-17 06:49:00,51.6,41.0,30.03,ESE,105,2.0,5.0,67,0.00,,,0.00,weatherlink.com 1.10,2013-04-17 10:49:00,
2013-04-17 07:04:00,51.6,41.0,30.03,NW,317,4.0,8.0,67,0.00,,,0.00,weatherlink.com 1.10,2013-04-17 11:04:00,
2013-04-17 07:20:00,52.3,41.0,30.05,NNE,15,2.0,9.0,66,0.00,,,0.00,weatherlink.com 1.10,2013-04-17 11:20:00,
2013-04-17 07:35:00,54.2,42.0,30.05,NNE,17,3.0,10.0,63,0.00,,,0.00,weatherlink.com 1.10,2013-04-17 11:35:00,
2013-04-17 07:50:00,54.8,39.0,30.06,North,350,12.0,13.0,56,0.00,,,0.00,weatherlink.com 1.10,2013-04-17 11:50:00,
2013-04-17 08:05:00,55.2,37.0,30.06,NNW,346,6.0,16.0,51,0.00,,,0.00,weatherlink.com 1.10,2013-04-17 12:05:00,
2013-04-17 08:20:00,55.7,35.0,30.07,North,5,6.0,16.0,46,0.00,,,0.00,weatherlink.com 1.10,2013-04-17 12:20:00,
2013-04-17 08:35:00,55.7,36.0,30.07,North,355,7.0,12.0,47,0.00,,,0.00,weatherlink.com 1.10,2013-04-17 12:35:00,
2013-04-17 08:50:00,55.3,35.0,30.07,NNW,331,4.0,12.0,47,0.00,,,0.00,weatherlink.com 1.10,2013-04-17 12:50:00,
2013-04-17 09:05:00,55.4,34.0,30.08,NW,323,2.0,11.0,44,0.00,,,0.00,weatherlink.com 1.10,2013-04-17 13:05:00,
2013-04-17 09:20:00,55.1,36.0,30.08,NW,311,6.0,11.0,48,0.00,,,0.00,weatherlink.com 1.10,2013-04-17 13:20:00,
2013-04-17 09:35:00,58.3,36.0,30.08,WNW,289,1.0,9.0,44,0.00,,,0.00,weatherlink.com 1.10,2013-04-17 13:35:00,
2013-04-17 09:50:00,62.7,37.0,30.08,NNW,331,3.0,12.0,39,0.00,,,0.00,weatherlink.com 1.10,2013-04-17 13:50:00,
2013-04-17 10:05:00,64.7,38.0,30.08,NNE,18,1.0,11.0,37,0.00,,,0.00,weatherlink.com 1.10,2013-04-17 14:05:00,
2013-04-17 10:20:00,65.8,37.0,30.08,NNE,22,1.0,14.0,35,0.00,,,0.00,weatherlink.com 1.10,2013-04-17 14:20:00,
2013-04-17 10:35:00,66.5,34.0,30.08,West,280,2.0,11.0,30,0.00,,,0.00,weatherlink.com 1.10,2013-04-17 14:35:00,
2013-04-17 10:50:00,65.5,34.0,30.07,North,5,5.0,10.0,31,0.00,,,0.00,weatherlink.com 1.10,2013-04-17 14:50:00,
2013-04-17 11:05:00,67.1,36.0,30.08,NNW,344,4.0,10.0,32,0.00,,,0.00,weatherlink.com 1.10,2013-04-17 15:05:00,
2013-04-17 11:20:00,68.7,37.0,30.08,NNW,345,9.0,9.0,31,0.00,,,0.00,weatherlink.com 1.10,2013-04-17 15:20:00,
2013-04-17 11:35:00,69.1,37.0,30.08,NW,319,6.0,10.0,31,0.00,,,0.00,weatherlink.com 1.10,2013-04-17 15:35:00,
2013-04-17 12:05:00,69.0,35.0,30.08,North,360,10.0,15.0,29,0.00,,,0.00,weatherlink.com 1.10,2013-04-17 16:05:00,
2013-04-17 12:20:00,68.1,36.0,30.07,NNE,13,3.0,16.0,31,0.00,,,0.00,weatherlink.com 1.10,2013-04-17 16:20:00,
2013-04-17 12:35:00,68.3,35.0,30.07,NNW,345,2.0,13.0,29,0.00,,,0.00,weatherlink.com 1.10,2013-04-17 16:35:00,
2013-04-17 12:50:00,68.5,36.0,30.07,North,350,7.0,13.0,30,0.00,,,0.00,weatherlink.com 1.10,2013-04-17 16:50:00,
2013-04-17 13:05:00,69.0,37.0,30.07,NNE,18,3.0,11.0,31,0.00,,,0.00,weatherlink.com 1.10,2013-04-17 17:05:00,
2013-04-17 13:20:00,70.1,34.0,30.06,NNE,17,8.0,14.0,27,0.00,,,0.00,weatherlink.com 1.10,2013-04-17 17:20:00,
2013-04-17 13:35:00,68.9,34.0,30.06,North,355,6.0,11.0,28,0.00,,,0.00,weatherlink.com 1.10,2013-04-17 17:35:00,
2013-04-17 13:50:00,69.4,33.0,30.06,NNE,32,5.0,14.0,26,0.00,,,0.00,weatherlink.com 1.10,2013-04-17 17:50:00,
2013-04-17 14:05:00,69.8,34.0,30.06,NNE,14,8.0,14.0,27,0.00,,,0.00,weatherlink.com 1.10,2013-04-17 18:05:00,
2013-04-17 14:20:00,70.4,33.0,30.06,NE,50,4.0,9.0,25,0.00,,,0.00,weatherlink.com 1.10,2013-04-17 18:20:00,
2013-04-17 14:35:00,70.3,34.0,30.06,NNW,345,4.0,9.0,26,0.00,,,0.00,weatherlink.com 1.10,2013-04-17 18:35:00,
2013-04-17 14:50:00,71.2,34.0,30.06,NE,37,2.0,10.0,25,0.00,,,0.00,weatherlink.com 1.10,2013-04-17 18:50:00,
2013-04-17 15:05:00,70.4,33.0,30.07,North,360,5.0,15.0,25,0.00,,,0.00,weatherlink.com 1.10,2013-04-17 19:05:00,
2013-04-17 15:20:00,69.3,32.0,30.07,NNW,329,3.0,18.0,25,0.00,,,0.00,weatherlink.com 1.10,2013-04-17 19:20:00,
2013-04-17 15:35:00,68.9,33.0,30.07,North,360,7.0,15.0,26,0.00,,,0.00,weatherlink.com 1.10,2013-04-17 19:35:00,
2013-04-17 15:50:00,68.6,32.0,30.08,West,262,7.0,16.0,26,0.00,,,0.00,weatherlink.com 1.10,2013-04-17 19:50:00,
2013-04-17 16:06:00,69.4,32.0,30.08,North,11,1.0,9.0,25,0.00,,,0.00,weatherlink.com 1.10,2013-04-17 20:06:00,
2013-04-17 16:21:00,68.6,30.0,30.08,North,5,8.0,11.0,24,0.00,,,0.00,weatherlink.com 1.10,2013-04-17 20:21:00,
2013-04-17 16:36:00,67.4,30.0,30.08,North,355,3.0,11.0,25,0.00,,,0.00,weatherlink.com 1.10,2013-04-17 20:36:00,
2013-04-17 16:51:00,66.9,31.0,30.09,NNE,14,4.0,12.0,26,0.00,,,0.00,weatherlink.com 1.10,2013-04-17 20:51:00,
2013-04-17 17:06:00,66.5,31.0,30.09,NNE,22,5.0,9.0,27,0.00,,,0.00,weatherlink.com 1.10,2013-04-17 21:06:00,
2013-04-17 17:21:00,64.9,31.0,30.10,North,5,4.0,10.0,28,0.00,,,0.00,weatherlink.com 1.10,2013-04-17 21:21:00,
2013-04-17 17:36:00,64.1,30.0,30.11,NNE,17,4.0,9.0,28,0.00,,,0.00,weatherlink.com 1.10,2013-04-17 21:36:00,
2013-04-17 17:51:00,63.4,29.0,30.12,NW,326,4.0,12.0,27,0.00,,,0.00,weatherlink.com 1.10,2013-04-17 21:51:00,
2013-04-17 18:06:00,62.6,29.0,30.13,North,5,4.0,12.0,28,0.00,,,0.00,weatherlink.com 1.10,2013-04-17 22:06:00,
2013-04-17 18:21:00,62.1,29.0,30.13,NNW,338,5.0,12.0,29,0.00,,,0.00,weatherlink.com 1.10,2013-04-17 22:21:00,
2013-04-17 18:36:00,61.4,30.0,30.14,NNE,23,5.0,11.0,30,0.00,,,0.00,weatherlink.com 1.10,2013-04-17 22:36:00,
2013-04-17 19:21:00,59.6,30.0,30.15,North,350,2.0,8.0,33,0.00,,,0.00,weatherlink.com 1.10,2013-04-17 23:21:00,
2013-04-17 19:36:00,59.0,31.0,30.16,North,355,2.0,4.0,35,0.00,,,0.00,weatherlink.com 1.10,2013-04-17 23:36:00,
2013-04-17 19:51:00,58.4,31.0,30.16,NNE,26,1.0,5.0,35,0.00,,,0.00,weatherlink.com 1.10,2013-04-17 23:51:00,
2013-04-17 20:06:00,57.8,31.0,30.18,NNW,342,5.0,7.0,36,0.00,,,0.00,weatherlink.com 1.10,2013-04-18 00:06:00,
2013-04-17 20:21:00,56.8,32.0,30.18,NNW,334,0.0,4.0,39,0.00,,,0.00,weatherlink.com 1.10,2013-04-18 00:21:00,
2013-04-17 20:36:00,55.8,32.0,30.19,NNE,13,1.0,3.0,40,0.00,,,0.00,weatherlink.com 1.10,2013-04-18 00:36:00,
2013-04-17 20:51:00,54.8,30.0,30.19,North,9,2.0,7.0,39,0.00,,,0.00,weatherlink.com 1.10,2013-04-18 00:51:00,
2013-04-17 21:06:00,54.4,29.0,30.20,NNW,348,2.0,6.0,38,0.00,,,0.00,weatherlink.com 1.10,2013-04-18 01:06:00,
2013-04-17 21:21:00,54.1,29.0,30.20,NNE,12,4.0,6.0,38,0.00,,,0.00,weatherlink.com 1.10,2013-04-18 01:21:00,
2013-04-17 21:51:00,52.7,29.0,30.21,NNE,30,1.0,4.0,41,0.00,,,0.00,weatherlink.com 1.10,2013-04-18 01:51:00,
2013-04-17 22:07:00,51.8,29.0,30.21,NNE,26,2.0,3.0,42,0.00,,,0.00,weatherlink.com 1.10,2013-04-18 02:07:00,
2013-04-17 22:21:00,50.8,29.0,30.21,NNE,26,0.0,1.0,44,0.00,,,0.00,weatherlink.com 1.10,2013-04-18 02:21:00,
2013-04-17 22:37:00,49.4,31.0,30.21,NNE,26,0.0,0.0,49,0.00,,,0.00,weatherlink.com 1.10,2013-04-18 02:37:00,
2013-04-17 22:52:00,48.3,31.0,30.23,NNE,26,0.0,0.0,51,0.00,,,0.00,weatherlink.com 1.10,2013-04-18 02:52:00,
2013-04-17 23:22:00,46.3,32.0,30.21,NNE,26,0.0,1.0,57,0.00,,,0.00,weatherlink.com 1.10,2013-04-18 03:22:00,
2013-04-17 23:37:00,45.3,32.0,30.22,NNE,26,0.0,0.0,60,0.00,,,0.00,weatherlink.com 1.10,2013-04-18 03:37:00,
2013-04-17 23:52:00,44.6,33.0,30.23,NNE,26,0.0,0.0,63,0.00,,,0.00,weatherlink.com 1.10,2013-04-18 03:52:00,